Terminal Aerodrome Forecast
Issued by NWS

Home | Current Version | Previous Version | Text Only | Print | Product List | Glossary On
Versions: 1 2 3 4 5 6 7 8 9 10 11 12 13 14
000
FTUS44 KOUN 251720
TAFPNC
TAF
KPNC 251720Z 2518/2618 19008KT P6SM BKN040
     FM252300 VRB05KT P6SM BKN060 OVC250
      TEMPO 2604/2608 VRB15G25KT 3SM TSRA BKN015CB=

USA.gov is the U.S. government's official web portal to all federal, state and local government web resources and services.